createdAt,value
2018-02-14T00:00:07.749Z,2.10
2018-02-14T00:02:34.557Z,2.13
2018-02-14T00:05:00.873Z,1.93
2018-02-14T00:07:27.936Z,2.10
2018-02-14T00:09:55.552Z,1.80
2018-02-14T00:12:21.992Z,1.80
2018-02-14T00:14:48.295Z,1.80
2018-02-14T00:17:15.066Z,1.80
2018-02-14T00:19:41.798Z,1.90
2018-02-14T00:22:08.164Z,2.33
2018-02-14T00:24:35.094Z,2.07
2018-02-14T00:27:01.460Z,1.93
2018-02-14T00:29:28.200Z,2.10
2018-02-14T00:31:54.718Z,2.20
2018-02-14T00:34:21.159Z,2.00
2018-02-14T00:36:47.911Z,2.37
2018-02-14T00:39:14.650Z,2.17
2018-02-14T00:41:40.952Z,1.80
2018-02-14T00:44:07.659Z,2.13
2018-02-14T00:46:35.921Z,1.90
2018-02-14T00:49:02.223Z,1.90
2018-02-14T00:51:28.896Z,2.30
2018-02-14T00:53:55.203Z,1.53
2018-02-14T00:56:21.523Z,2.23
2018-02-14T00:58:48.011Z,1.90
2018-02-14T01:01:14.748Z,1.90
2018-02-14T01:03:41.507Z,1.77
2018-02-14T01:06:07.841Z,2.20
2018-02-14T01:08:34.701Z,1.80
2018-02-14T01:11:01.024Z,1.90
2018-02-14T01:13:27.751Z,1.97
2018-02-14T01:15:54.335Z,2.30
2018-02-14T01:18:20.640Z,2.00
2018-02-14T01:20:46.972Z,1.83
2018-02-14T01:23:13.695Z,1.90
2018-02-14T01:25:40.482Z,1.73
2018-02-14T01:28:06.812Z,1.77
2018-02-14T01:30:33.428Z,2.10
2018-02-14T01:33:00.821Z,1.97
2018-02-14T01:35:27.267Z,2.00
2018-02-14T01:37:53.688Z,1.93
2018-02-14T01:40:20.439Z,1.90
2018-02-14T01:42:46.757Z,1.63
2018-02-14T01:45:13.427Z,1.67
2018-02-14T01:47:40.184Z,2.17
2018-02-14T01:50:07.748Z,1.60
2018-02-14T01:52:34.521Z,2.13
2018-02-14T01:55:01.311Z,2.27
2018-02-14T01:57:28.088Z,1.73
2018-02-14T01:59:54.403Z,2.03
2018-02-14T02:02:21.143Z,2.10
2018-02-14T02:04:47.473Z,2.00
2018-02-14T02:07:13.906Z,2.27
2018-02-14T02:09:40.585Z,2.10
2018-02-14T02:12:06.898Z,1.87
2018-02-14T02:14:33.664Z,1.67
2018-02-14T02:17:01.448Z,1.77
2018-02-14T02:19:28.160Z,2.30
2018-02-14T02:21:54.475Z,2.10
2018-02-14T02:24:21.266Z,1.70
2018-02-14T02:26:48.016Z,1.70
2018-02-14T02:29:14.732Z,2.10
2018-02-14T02:31:41.410Z,1.90
2018-02-14T02:34:08.946Z,1.90
2018-02-14T02:36:35.487Z,1.73
2018-02-14T02:39:02.356Z,2.03
2018-02-14T02:41:28.658Z,2.07
2018-02-14T02:43:55.412Z,2.00
2018-02-14T02:46:22.268Z,2.40
2018-02-14T02:48:48.575Z,2.13
2018-02-14T02:51:14.887Z,1.80
2018-02-14T02:53:41.680Z,1.57
2018-02-14T02:56:08.427Z,2.07
2018-02-14T02:58:34.761Z,2.10
2018-02-14T03:01:01.567Z,1.70
2018-02-14T03:03:27.876Z,1.53
2018-02-14T03:05:54.796Z,2.00
2018-02-14T03:08:21.643Z,1.93
2018-02-14T03:10:48.380Z,1.67
2018-02-14T03:13:14.688Z,2.37
2018-02-14T03:15:41.468Z,2.00
2018-02-14T03:18:08.068Z,1.60
2018-02-14T03:20:34.852Z,1.90
2018-02-14T03:23:01.165Z,1.70
2018-02-14T03:25:27.911Z,1.57
2018-02-14T03:27:54.215Z,2.50
2018-02-14T03:30:21.265Z,2.00
2018-02-14T03:32:48.415Z,1.67
2018-02-14T03:35:15.151Z,1.90
2018-02-14T03:37:41.463Z,1.80
2018-02-14T03:40:08.098Z,1.73
2018-02-14T03:42:34.791Z,2.00
2018-02-14T03:45:01.868Z,1.87
2018-02-14T03:47:28.647Z,2.10
2018-02-14T03:50:01.854Z,1.80
2018-02-14T03:52:28.671Z,2.00
2018-02-14T03:54:55.430Z,1.90
2018-02-14T03:57:21.743Z,1.70
2018-02-14T03:59:48.419Z,2.00
2018-02-14T04:02:15.671Z,1.70
2018-02-14T04:04:42.009Z,1.50
2018-02-14T04:07:08.783Z,1.93
2018-02-14T04:09:35.214Z,1.70
2018-02-14T04:12:02.033Z,1.80
2018-02-14T04:14:28.788Z,1.77
2018-02-14T04:16:55.097Z,1.80
2018-02-14T04:19:21.809Z,2.10
2018-02-14T04:21:48.860Z,2.10
2018-02-14T04:24:16.340Z,2.10
2018-02-14T04:26:43.716Z,1.90
2018-02-14T04:29:10.029Z,1.60
2018-02-14T04:31:37.545Z,1.90
2018-02-14T04:34:04.278Z,2.10
2018-02-14T04:36:31.048Z,1.77
2018-02-14T04:38:57.713Z,2.20
2018-02-14T04:41:24.210Z,2.00
2018-02-14T04:43:50.502Z,2.10
2018-02-14T04:46:18.012Z,1.80
2018-02-14T04:48:44.669Z,2.00
2018-02-14T04:51:11.404Z,2.30
2018-02-14T04:53:37.941Z,2.27
2018-02-14T04:56:04.638Z,2.10
2018-02-14T04:58:31.683Z,1.87
2018-02-14T05:00:59.229Z,2.20
2018-02-14T05:03:26.056Z,2.20
2018-02-14T05:05:52.791Z,2.00
2018-02-14T05:08:19.094Z,2.10
2018-02-14T05:10:45.877Z,2.60
2018-02-14T05:13:12.850Z,2.00
2018-02-14T05:15:39.167Z,2.00
2018-02-14T05:18:05.477Z,2.10
2018-02-14T05:20:31.965Z,2.00
2018-02-14T05:22:58.612Z,2.00
2018-02-14T05:25:25.364Z,1.77
2018-02-14T05:27:51.783Z,2.20
2018-02-14T05:30:18.621Z,2.40
2018-02-14T05:32:44.934Z,1.87
2018-02-14T05:35:11.597Z,2.13
2018-02-14T05:37:37.908Z,2.50
2018-02-14T05:40:04.784Z,2.00
2018-02-14T05:42:31.552Z,2.10
2018-02-14T05:44:57.860Z,2.07
2018-02-14T05:47:24.621Z,1.80
2018-02-14T05:49:51.480Z,1.90
2018-02-14T05:52:19.670Z,2.20
2018-02-14T05:54:46.403Z,1.90
2018-02-14T05:57:12.709Z,2.03
2018-02-14T05:59:39.360Z,2.17
2018-02-14T06:02:06.100Z,2.30
2018-02-14T06:04:32.848Z,2.10
2018-02-14T06:06:59.543Z,1.87
2018-02-14T06:09:27.057Z,1.77
2018-02-14T06:11:53.724Z,1.90
2018-02-14T06:14:21.524Z,1.80
2018-02-14T06:16:49.135Z,1.50
2018-02-14T06:19:15.879Z,1.60
2018-02-14T06:21:42.176Z,1.70
2018-02-14T06:24:09.222Z,1.97
2018-02-14T06:26:36.419Z,1.90
2018-02-14T06:29:02.739Z,1.40
2018-02-14T06:31:29.042Z,1.87
2018-02-14T06:33:56.256Z,1.90
2018-02-14T06:36:22.567Z,1.80
2018-02-14T06:38:49.003Z,1.60
2018-02-14T06:41:15.304Z,1.60
2018-02-14T06:43:41.600Z,1.97
2018-02-14T06:46:08.031Z,1.80
2018-02-14T06:48:34.341Z,1.80
2018-02-14T06:51:00.636Z,1.50
2018-02-14T06:53:27.076Z,1.90
2018-02-14T06:55:53.393Z,1.97
2018-02-14T06:58:19.704Z,1.80
2018-02-14T07:00:46.160Z,1.80
2018-02-14T07:03:12.459Z,1.60
2018-02-14T07:05:38.764Z,1.97
2018-02-14T07:08:05.276Z,2.03
2018-02-14T07:10:32.569Z,1.60
2018-02-14T07:12:59.997Z,1.83
2018-02-14T07:15:26.835Z,1.93
2018-02-14T07:17:53.584Z,1.83
2018-02-14T07:20:19.889Z,1.67
2018-02-14T07:22:46.679Z,2.00
2018-02-14T07:25:13.316Z,2.13
2018-02-14T07:27:39.998Z,2.20
2018-02-14T07:30:07.060Z,2.20
2018-02-14T07:32:34.137Z,2.70
2018-02-14T07:35:00.573Z,1.80
2018-02-14T07:37:27.098Z,2.30
2018-02-14T07:39:53.423Z,2.30
2018-02-14T07:42:20.675Z,2.00
2018-02-14T07:44:47.891Z,2.00
2018-02-14T07:47:14.200Z,2.37
2018-02-14T07:49:40.640Z,2.00
2018-02-14T07:52:07.006Z,2.40
2018-02-14T07:54:33.312Z,1.80
2018-02-14T07:56:59.740Z,1.90
2018-02-14T07:59:26.069Z,2.10
2018-02-14T08:01:52.389Z,1.87
2018-02-14T08:04:19.618Z,2.00
2018-02-14T08:06:45.941Z,2.40
2018-02-14T08:09:12.535Z,2.50
2018-02-14T08:11:39.016Z,2.50
2018-02-14T08:14:05.341Z,2.00
2018-02-14T08:16:32.068Z,2.13
2018-02-14T08:18:58.383Z,2.20
2018-02-14T08:21:25.460Z,2.10
2018-02-14T08:23:51.908Z,2.00
2018-02-14T08:26:18.252Z,1.90
2018-02-14T08:28:44.554Z,1.90
2018-02-14T08:31:11.747Z,2.23
2018-02-14T08:33:38.082Z,2.50
2018-02-14T08:36:04.531Z,2.17
2018-02-14T08:38:30.845Z,2.77
2018-02-14T08:40:57.330Z,2.30
2018-02-14T08:43:23.851Z,2.67
2018-02-14T08:45:50.206Z,2.87
2018-02-14T08:48:16.590Z,3.33
2018-02-14T08:50:43.378Z,2.87
2018-02-14T08:53:09.715Z,3.07
2018-02-14T08:55:36.245Z,2.97
2018-02-14T08:58:02.588Z,2.57
2018-02-14T09:00:28.968Z,2.67
2018-02-14T09:02:56.180Z,2.87
2018-02-14T09:05:22.490Z,2.27
2018-02-14T09:07:48.812Z,2.20
2018-02-14T09:10:15.239Z,2.40
2018-02-14T09:12:42.675Z,2.23
2018-02-14T09:15:09.501Z,2.67
2018-02-14T09:17:36.176Z,2.50
2018-02-14T09:20:02.556Z,2.57
2018-02-14T09:22:28.868Z,2.97
2018-02-14T09:24:56.240Z,2.80
2018-02-14T09:27:22.557Z,2.20
2018-02-14T09:29:49.636Z,1.90
2018-02-14T09:32:16.120Z,2.10
2018-02-14T09:34:42.428Z,2.10
2018-02-14T09:37:08.739Z,2.47
2018-02-14T09:39:35.230Z,2.00
2018-02-14T09:42:01.663Z,2.27
2018-02-14T09:44:28.020Z,1.63
2018-02-14T09:46:54.503Z,2.17
2018-02-14T09:49:20.883Z,1.90
2018-02-14T09:51:47.210Z,2.27
2018-02-14T09:54:13.898Z,2.03
2018-02-14T09:56:41.051Z,2.00
2018-02-14T09:59:08.108Z,1.80
2018-02-14T10:01:35.316Z,2.10
2018-02-14T10:04:01.641Z,2.00
2018-02-14T10:06:27.975Z,2.00
2018-02-14T10:08:54.482Z,2.40
2018-02-14T10:11:20.822Z,1.87
2018-02-14T10:13:48.121Z,2.27
2018-02-14T10:16:14.503Z,2.07
2018-02-14T10:18:42.039Z,1.90
2018-02-14T10:21:08.568Z,1.87
2018-02-14T10:23:34.914Z,2.17
2018-02-14T10:26:01.353Z,2.10
2018-02-14T10:28:27.878Z,2.13
2018-02-14T10:30:54.194Z,2.20
2018-02-14T10:33:20.552Z,1.90
2018-02-14T10:35:47.301Z,3.03
2018-02-14T10:38:13.629Z,4.00
2018-02-14T10:40:40.342Z,3.70
2018-02-14T10:43:07.146Z,3.50
2018-02-14T10:45:33.449Z,3.57
2018-02-14T10:48:00.165Z,3.70
2018-02-14T10:50:26.471Z,3.40
2018-02-14T10:52:52.803Z,3.10
2018-02-14T10:55:19.734Z,4.03
2018-02-14T10:57:46.576Z,2.97
2018-02-14T11:00:16.937Z,3.20
2018-02-14T11:02:49.494Z,3.20
2018-02-14T11:05:21.951Z,2.70
2018-02-14T11:07:48.716Z,3.20
2018-02-14T11:10:15.048Z,2.93
2018-02-14T11:12:41.593Z,2.90
2018-02-14T11:15:08.769Z,3.00
2018-02-14T11:17:35.436Z,3.00
2018-02-14T11:20:02.956Z,3.03
2018-02-14T11:22:29.655Z,2.90
2018-02-14T11:24:57.006Z,2.70
2018-02-14T11:27:23.514Z,3.20
2018-02-14T11:29:49.831Z,3.37
2018-02-14T11:32:16.670Z,2.60
2018-02-14T11:34:42.994Z,2.80
2018-02-14T11:37:09.866Z,2.60
2018-02-14T11:39:36.192Z,3.20
2018-02-14T11:42:02.569Z,3.20
2018-02-14T11:44:29.741Z,3.30
2018-02-14T11:46:56.792Z,3.40
2018-02-14T11:49:23.886Z,3.40
2018-02-14T11:51:50.328Z,3.70
2018-02-14T11:54:16.637Z,3.37
2018-02-14T11:56:42.947Z,3.63
2018-02-14T11:59:10.159Z,3.60
2018-02-14T12:01:37.025Z,3.40
2018-02-14T12:04:03.853Z,3.83
2018-02-14T12:06:30.596Z,3.20
2018-02-14T12:08:57.340Z,3.60
2018-02-14T12:11:24.013Z,3.50
2018-02-14T12:13:50.836Z,2.80
2018-02-14T12:16:17.584Z,3.80
2018-02-14T12:18:44.239Z,3.30
2018-02-14T12:21:11.033Z,3.20
2018-02-14T12:23:37.720Z,3.13
2018-02-14T12:26:04.392Z,3.27
2018-02-14T12:28:31.037Z,3.30
2018-02-14T12:30:57.808Z,3.03
2018-02-14T12:33:25.315Z,2.80
2018-02-14T12:35:52.072Z,2.60
2018-02-14T12:38:18.474Z,2.73
2018-02-14T12:40:44.921Z,2.37
2018-02-14T12:43:11.232Z,2.57
2018-02-14T12:45:38.079Z,2.53
2018-02-14T12:48:04.799Z,3.03
2018-02-14T12:50:31.136Z,2.20
2018-02-14T12:52:57.453Z,2.40
2018-02-14T12:55:24.891Z,2.30
2018-02-14T12:57:51.205Z,2.10
2018-02-14T13:00:17.673Z,2.00
2018-02-14T13:02:44.420Z,1.93
2018-02-14T13:05:10.730Z,2.30
2018-02-14T13:07:37.051Z,2.43
2018-02-14T13:10:03.861Z,2.30
2018-02-14T13:12:30.260Z,2.43
2018-02-14T13:14:56.644Z,1.77
2018-02-14T13:17:23.157Z,1.77
2018-02-14T13:19:49.478Z,2.10
2018-02-14T13:22:16.243Z,2.23
2018-02-14T13:24:42.995Z,2.00
2018-02-14T13:27:09.477Z,2.23
2018-02-14T13:29:36.024Z,2.63
2018-02-14T13:32:02.404Z,2.80
2018-02-14T13:34:28.777Z,3.27
2018-02-14T13:36:56.010Z,4.00
2018-02-14T13:39:22.354Z,3.50
2018-02-14T13:41:49.030Z,3.13
2018-02-14T13:44:16.143Z,3.50
2018-02-14T13:46:42.505Z,3.40
2018-02-14T13:49:09.834Z,2.97
2018-02-14T13:51:36.187Z,3.07
2018-02-14T13:54:02.547Z,3.00
2018-02-14T13:56:29.774Z,3.00
2018-02-14T13:58:56.602Z,2.93
2018-02-14T14:01:23.109Z,2.70
2018-02-14T14:03:49.895Z,2.60
2018-02-14T14:06:16.666Z,2.80
2018-02-14T14:08:43.505Z,2.60
2018-02-14T14:11:09.860Z,2.30
2018-02-14T14:13:37.381Z,2.40
2018-02-14T14:16:04.337Z,2.20
2018-02-14T14:18:32.993Z,2.10
2018-02-14T14:20:59.720Z,2.70
2018-02-14T14:23:26.828Z,2.20
2018-02-14T14:25:53.167Z,2.43
2018-02-14T14:28:19.697Z,1.90
2018-02-14T14:30:46.044Z,2.10
2018-02-14T14:33:12.380Z,2.00
2018-02-14T14:35:38.931Z,2.50
2018-02-14T14:38:05.768Z,1.97
2018-02-14T14:40:32.163Z,1.90
2018-02-14T14:42:58.550Z,1.70
2018-02-14T14:45:25.099Z,1.80
2018-02-14T14:47:51.780Z,1.93
2018-02-14T14:50:18.131Z,1.60
2018-02-14T14:52:44.481Z,1.90
2018-02-14T14:55:11.038Z,1.60
2018-02-14T14:57:37.382Z,1.87
2018-02-14T15:00:03.802Z,1.63
2018-02-14T15:02:30.293Z,1.83
2018-02-14T15:04:57.516Z,1.80
2018-02-14T15:07:23.877Z,1.97
2018-02-14T15:09:50.540Z,1.80
2018-02-14T15:12:17.765Z,2.80
2018-02-14T15:14:44.284Z,3.27
2018-02-14T15:17:10.626Z,2.03
2018-02-14T15:19:37.107Z,2.20
2018-02-14T15:22:04.329Z,2.33
2018-02-14T15:24:30.683Z,2.23
2018-02-14T15:26:57.555Z,2.00
2018-02-14T15:29:24.660Z,1.93
2018-02-14T15:31:51.048Z,2.30
2018-02-14T15:34:18.427Z,2.70
2018-02-14T15:36:44.784Z,2.70
2018-02-14T15:39:11.146Z,2.37
2018-02-14T15:41:37.677Z,2.30
2018-02-14T15:44:04.066Z,2.40
2018-02-14T15:46:30.432Z,2.50
2018-02-14T15:48:56.997Z,3.00
2018-02-14T15:51:23.355Z,3.20
2018-02-14T15:53:50.284Z,3.53
2018-02-14T15:56:16.815Z,3.13
2018-02-14T15:58:43.668Z,2.97
2018-02-14T16:01:10.349Z,3.20
2018-02-14T16:03:37.502Z,2.90
2018-02-14T16:06:05.130Z,2.50
2018-02-14T16:08:31.916Z,2.40
2018-02-14T16:10:59.655Z,2.67
2018-02-14T16:13:26.592Z,2.67
2018-02-14T16:15:53.380Z,3.27
2018-02-14T16:18:19.733Z,2.50
2018-02-14T16:20:46.561Z,2.20
2018-02-14T16:23:14.496Z,2.80
2018-02-14T16:25:41.208Z,2.77
2018-02-14T16:28:07.591Z,2.90
2018-02-14T16:30:34.545Z,2.33
2018-02-14T16:33:01.864Z,2.43
2018-02-14T16:35:28.778Z,2.30
2018-02-14T16:37:55.627Z,2.13
2018-02-14T16:40:22.754Z,2.30
2018-02-14T16:42:49.589Z,2.13
2018-02-14T16:45:23.309Z,2.50
2018-02-14T16:47:50.157Z,2.60
2018-02-14T16:50:17.091Z,2.57
2018-02-14T16:52:43.979Z,2.63
2018-02-14T16:55:10.810Z,2.40
2018-02-14T16:57:38.445Z,2.73
2018-02-14T17:00:04.844Z,2.83
2018-02-14T17:02:33.606Z,3.37
2018-02-14T17:05:00.340Z,2.60
2018-02-14T17:07:27.199Z,2.40
2018-02-14T17:09:54.013Z,2.57
2018-02-14T17:12:21.128Z,2.70
2018-02-14T17:14:48.248Z,2.20
2018-02-14T17:17:14.781Z,2.50
2018-02-14T17:19:41.139Z,2.50
2018-02-14T17:22:08.087Z,2.70
2018-02-14T17:24:35.225Z,2.00
2018-02-14T17:27:01.997Z,2.07
2018-02-14T17:29:28.832Z,2.00
2018-02-14T17:31:55.652Z,2.23
2018-02-14T17:34:22.457Z,2.40
2018-02-14T17:36:50.001Z,3.03
2018-02-14T17:39:17.568Z,2.90
2018-02-14T17:41:44.482Z,2.90
2018-02-14T17:44:11.328Z,3.30
2018-02-14T17:46:38.194Z,3.30
2018-02-14T17:49:04.580Z,3.10
2018-02-14T17:51:30.937Z,3.20
2018-02-14T17:53:57.633Z,3.13
2018-02-14T17:56:25.230Z,4.00
2018-02-14T17:58:51.621Z,3.73
2018-02-14T18:01:18.050Z,3.73
2018-02-14T18:03:44.588Z,3.43
2018-02-14T18:06:10.992Z,3.73
2018-02-14T18:08:38.083Z,3.80
2018-02-14T18:11:04.632Z,3.37
2018-02-14T18:13:31.084Z,3.27
2018-02-14T18:15:57.681Z,3.37
2018-02-14T18:18:24.253Z,3.80
2018-02-14T18:20:50.636Z,3.00
2018-02-14T18:23:17.023Z,3.40
2018-02-14T18:25:44.292Z,3.40
2018-02-14T18:28:10.648Z,3.40
2018-02-14T18:30:37.959Z,3.27
2018-02-14T18:33:04.511Z,3.57
2018-02-14T18:35:30.885Z,4.00
2018-02-14T18:37:57.977Z,3.70
2018-02-14T18:40:24.484Z,3.73
2018-02-14T18:42:51.620Z,3.40
2018-02-14T18:45:18.389Z,4.40
2018-02-14T18:47:45.947Z,3.50
2018-02-14T18:50:13.056Z,3.53
2018-02-14T18:52:39.591Z,3.60
2018-02-14T18:55:05.966Z,3.40
2018-02-14T18:57:32.542Z,3.10
2018-02-14T18:59:59.049Z,2.77
2018-02-14T19:02:25.456Z,2.60
2018-02-14T19:04:51.806Z,3.10
2018-02-14T19:07:18.355Z,3.03
2018-02-14T19:09:44.879Z,2.83
2018-02-14T19:12:18.162Z,2.60
2018-02-14T19:14:44.730Z,2.60
2018-02-14T19:17:11.093Z,2.70
2018-02-14T19:19:38.216Z,2.50
2018-02-14T19:22:05.018Z,2.20
2018-02-14T19:24:31.508Z,2.27
2018-02-14T19:26:57.920Z,2.50
2018-02-14T19:29:24.412Z,2.70
2018-02-14T19:31:51.544Z,2.20
2018-02-14T19:34:17.902Z,1.90
2018-02-14T19:36:45.123Z,2.33
2018-02-14T19:39:11.522Z,2.37
2018-02-14T19:41:38.024Z,2.00
2018-02-14T19:44:11.444Z,2.30
2018-02-14T19:46:38.544Z,2.47
2018-02-14T19:49:04.894Z,2.00
2018-02-14T19:51:31.441Z,1.93
2018-02-14T19:53:57.804Z,2.50
2018-02-14T19:56:24.914Z,2.37
2018-02-14T19:58:51.475Z,2.57
2018-02-14T20:01:17.839Z,2.40
2018-02-14T20:03:44.982Z,2.30
2018-02-14T20:06:11.456Z,2.03
2018-02-14T20:08:37.843Z,2.10
2018-02-14T20:11:04.219Z,2.47
2018-02-14T20:13:30.748Z,2.50
2018-02-14T20:15:58.311Z,2.10
2018-02-14T20:18:25.403Z,1.97
2018-02-14T20:20:51.764Z,2.37
2018-02-14T20:23:18.610Z,1.97
2018-02-14T20:25:45.143Z,2.07
2018-02-14T20:28:11.500Z,2.60
2018-02-14T20:30:37.868Z,1.90
2018-02-14T20:33:05.176Z,2.33
2018-02-14T20:35:31.547Z,2.30
2018-02-14T20:37:57.914Z,2.37
2018-02-14T20:40:24.405Z,2.33
2018-02-14T20:42:50.822Z,2.90
2018-02-14T20:45:17.172Z,2.43
2018-02-14T20:47:43.684Z,2.43
2018-02-14T20:50:10.564Z,3.00
2018-02-14T20:52:37.410Z,3.43
2018-02-14T20:55:04.187Z,3.50
2018-02-14T20:57:31.291Z,3.67
2018-02-14T20:59:58.081Z,3.63
2018-02-14T21:02:24.935Z,3.20
2018-02-14T21:04:52.131Z,3.10
2018-02-14T21:07:18.502Z,3.00
2018-02-14T21:09:45.037Z,3.77
2018-02-14T21:12:11.404Z,3.10
2018-02-14T21:14:38.549Z,2.97
2018-02-14T21:17:05.029Z,2.80
2018-02-14T21:19:31.394Z,2.70
2018-02-14T21:21:57.740Z,2.80
2018-02-14T21:24:24.485Z,2.70
2018-02-14T21:26:50.845Z,3.17
2018-02-14T21:29:17.206Z,2.53
2018-02-14T21:31:44.453Z,3.07
2018-02-14T21:34:11.524Z,3.13
2018-02-14T21:36:37.888Z,2.70
2018-02-14T21:39:04.387Z,3.03
2018-02-14T21:41:31.475Z,2.80
2018-02-14T21:43:57.814Z,2.50
2018-02-14T21:46:24.316Z,2.27
2018-02-14T21:48:51.574Z,2.40
2018-02-14T21:51:18.703Z,2.50
2018-02-14T21:53:45.251Z,2.60
2018-02-14T21:56:11.620Z,2.27
2018-02-14T21:58:37.978Z,2.50
2018-02-14T22:01:04.459Z,2.27
2018-02-14T22:03:30.812Z,2.00
2018-02-14T22:05:57.191Z,2.40
2018-02-14T22:08:23.755Z,2.53
2018-02-14T22:10:50.144Z,2.70
2018-02-14T22:13:17.249Z,2.30
2018-02-14T22:15:44.054Z,2.60
2018-02-14T22:18:10.456Z,2.00
2018-02-14T22:20:36.837Z,2.50
2018-02-14T22:23:03.623Z,2.33
2018-02-14T22:25:30.414Z,2.27
2018-02-14T22:27:57.504Z,2.60
2018-02-14T22:30:23.868Z,2.77
2018-02-14T22:32:50.436Z,2.03
2018-02-14T22:35:17.525Z,2.40
2018-02-14T22:37:43.879Z,2.07
2018-02-14T22:40:10.350Z,2.57
2018-02-14T22:42:36.712Z,2.30
2018-02-14T22:45:03.856Z,2.73
2018-02-14T22:47:31.069Z,2.47
2018-02-14T22:49:57.438Z,2.30
2018-02-14T22:52:24.321Z,2.10
2018-02-14T22:54:51.048Z,2.30
2018-02-14T22:57:18.604Z,2.00
2018-02-14T22:59:45.104Z,2.43
2018-02-14T23:02:11.496Z,2.57
2018-02-14T23:04:38.835Z,2.10
2018-02-14T23:07:05.387Z,2.47
2018-02-14T23:09:31.746Z,2.20
2018-02-14T23:11:58.093Z,2.50
2018-02-14T23:14:24.656Z,2.20
2018-02-14T23:16:51.026Z,3.00
2018-02-14T23:19:17.882Z,2.40
2018-02-14T23:21:44.242Z,2.20
2018-02-14T23:24:10.941Z,2.10
2018-02-14T23:26:37.703Z,2.37
2018-02-14T23:29:04.586Z,2.30
2018-02-14T23:31:31.383Z,2.20
2018-02-14T23:33:58.082Z,2.40
2018-02-14T23:36:24.440Z,2.63
2018-02-14T23:38:51.172Z,2.30
2018-02-14T23:41:17.559Z,2.63
2018-02-14T23:43:44.488Z,2.53
2018-02-14T23:46:11.166Z,2.10
2018-02-14T23:48:38.270Z,2.07
2018-02-14T23:51:05.037Z,2.43
2018-02-14T23:53:31.805Z,2.30
2018-02-14T23:55:58.542Z,2.40
2018-02-14T23:58:26.196Z,2.20
